sensor_id;sensor_type;location;lat;lon;timestamp;temperature;humidity
2260;DHT22;333;48.800;9.530;2023-06-14T00:00:16;13.30;99.60
2260;DHT22;333;48.800;9.530;2023-06-14T00:02:43;13.30;99.60
2260;DHT22;333;48.800;9.530;2023-06-14T00:05:10;13.40;99.60
2260;DHT22;333;48.800;9.530;2023-06-14T00:07:39;13.50;99.60
2260;DHT22;333;48.800;9.530;2023-06-14T00:10:09;13.50;99.60
2260;DHT22;333;48.800;9.530;2023-06-14T00:12:36;13.30;99.60
2260;DHT22;333;48.800;9.530;2023-06-14T00:15:04;13.20;99.60
2260;DHT22;333;48.800;9.530;2023-06-14T00:17:32;13.10;99.60
2260;DHT22;333;48.800;9.530;2023-06-14T00:19:59;13.10;99.60
2260;DHT22;333;48.800;9.530;2023-06-14T00:22:30;13.00;99.60
2260;DHT22;333;48.800;9.530;2023-06-14T00:24:58;13.00;99.60
2260;DHT22;333;48.800;9.530;2023-06-14T00:27:25;13.00;99.60
2260;DHT22;333;48.800;9.530;2023-06-14T00:29:52;12.90;99.60
2260;DHT22;333;48.800;9.530;2023-06-14T00:32:19;12.90;99.60
2260;DHT22;333;48.800;9.530;2023-06-14T00:34:51;12.80;99.60
2260;DHT22;333;48.800;9.530;2023-06-14T00:37:18;12.80;99.60
2260;DHT22;333;48.800;9.530;2023-06-14T00:39:45;12.70;99.60
2260;DHT22;333;48.800;9.530;2023-06-14T00:42:23;12.70;99.60
2260;DHT22;333;48.800;9.530;2023-06-14T00:44:50;12.60;99.60
2260;DHT22;333;48.800;9.530;2023-06-14T00:47:17;12.60;99.60
2260;DHT22;333;48.800;9.530;2023-06-14T00:49:45;12.70;99.60
2260;DHT22;333;48.800;9.530;2023-06-14T00:52:13;12.70;99.60
2260;DHT22;333;48.800;9.530;2023-06-14T00:54:41;12.60;99.60
2260;DHT22;333;48.800;9.530;2023-06-14T00:57:08;12.50;99.60
2260;DHT22;333;48.800;9.530;2023-06-14T00:59:40;12.40;99.60
2260;DHT22;333;48.800;9.530;2023-06-14T01:02:08;12.40;99.60
2260;DHT22;333;48.800;9.530;2023-06-14T01:04:35;12.30;99.60
2260;DHT22;333;48.800;9.530;2023-06-14T01:07:07;12.30;99.60
2260;DHT22;333;48.800;9.530;2023-06-14T01:09:50;12.20;99.60
2260;DHT22;333;48.800;9.530;2023-06-14T01:12:24;12.20;99.60
2260;DHT22;333;48.800;9.530;2023-06-14T01:14:55;12.10;99.60
2260;DHT22;333;48.800;9.530;2023-06-14T01:17:24;12.10;99.60
2260;DHT22;333;48.800;9.530;2023-06-14T01:19:52;12.10;99.60
2260;DHT22;333;48.800;9.530;2023-06-14T01:22:24;12.00;99.60
2260;DHT22;333;48.800;9.530;2023-06-14T01:24:53;12.10;99.60
2260;DHT22;333;48.800;9.530;2023-06-14T01:27:22;11.90;99.60
2260;DHT22;333;48.800;9.530;2023-06-14T01:29:54;11.80;99.60
2260;DHT22;333;48.800;9.530;2023-06-14T01:32:22;11.80;99.60
2260;DHT22;333;48.800;9.530;2023-06-14T01:34:50;11.80;99.60
2260;DHT22;333;48.800;9.530;2023-06-14T01:37:17;11.80;99.60
2260;DHT22;333;48.800;9.530;2023-06-14T01:39:45;11.80;99.60
2260;DHT22;333;48.800;9.530;2023-06-14T01:42:16;11.70;99.60
2260;DHT22;333;48.800;9.530;2023-06-14T01:44:43;11.70;99.60
2260;DHT22;333;48.800;9.530;2023-06-14T01:47:11;11.70;99.60
2260;DHT22;333;48.800;9.530;2023-06-14T01:49:38;11.70;99.60
2260;DHT22;333;48.800;9.530;2023-06-14T01:52:06;11.70;99.60
2260;DHT22;333;48.800;9.530;2023-06-14T01:54:35;11.70;99.60
2260;DHT22;333;48.800;9.530;2023-06-14T01:57:07;11.60;99.60
2260;DHT22;333;48.800;9.530;2023-06-14T01:59:35;11.60;99.60
2260;DHT22;333;48.800;9.530;2023-06-14T02:02:03;11.60;99.60
2260;DHT22;333;48.800;9.530;2023-06-14T02:04:30;11.60;99.60
2260;DHT22;333;48.800;9.530;2023-06-14T02:06:57;11.50;99.60
2260;DHT22;333;48.800;9.530;2023-06-14T02:09:24;11.40;99.60
2260;DHT22;333;48.800;9.530;2023-06-14T02:11:51;11.40;99.60
2260;DHT22;333;48.800;9.530;2023-06-14T02:14:18;11.30;99.60
2260;DHT22;333;48.800;9.530;2023-06-14T02:16:47;11.30;99.60
2260;DHT22;333;48.800;9.530;2023-06-14T02:19:15;11.20;99.60
2260;DHT22;333;48.800;9.530;2023-06-14T02:21:42;11.20;99.60
2260;DHT22;333;48.800;9.530;2023-06-14T02:24:09;11.20;99.60
2260;DHT22;333;48.800;9.530;2023-06-14T02:26:37;11.10;99.60
2260;DHT22;333;48.800;9.530;2023-06-14T02:29:04;11.20;99.60
2260;DHT22;333;48.800;9.530;2023-06-14T02:31:34;11.20;99.60
2260;DHT22;333;48.800;9.530;2023-06-14T02:34:03;11.20;99.60
2260;DHT22;333;48.800;9.530;2023-06-14T02:36:30;11.10;99.60
2260;DHT22;333;48.800;9.530;2023-06-14T02:38:57;11.00;99.60
2260;DHT22;333;48.800;9.530;2023-06-14T02:41:24;11.20;99.60
2260;DHT22;333;48.800;9.530;2023-06-14T02:43:51;11.10;99.60
2260;DHT22;333;48.800;9.530;2023-06-14T02:46:18;11.00;99.60
2260;DHT22;333;48.800;9.530;2023-06-14T02:48:45;10.80;99.60
2260;DHT22;333;48.800;9.530;2023-06-14T02:51:13;10.90;99.60
2260;DHT22;333;48.800;9.530;2023-06-14T02:53:40;11.00;99.60
2260;DHT22;333;48.800;9.530;2023-06-14T02:56:07;11.00;99.60
2260;DHT22;333;48.800;9.530;2023-06-14T02:58:35;10.90;99.60
2260;DHT22;333;48.800;9.530;2023-06-14T03:01:02;10.80;99.60
2260;DHT22;333;48.800;9.530;2023-06-14T03:03:29;10.80;99.60
2260;DHT22;333;48.800;9.530;2023-06-14T03:05:56;10.90;99.60
2260;DHT22;333;48.800;9.530;2023-06-14T03:08:25;10.90;99.60
2260;DHT22;333;48.800;9.530;2023-06-14T03:10:53;10.80;99.60
2260;DHT22;333;48.800;9.530;2023-06-14T03:13:21;10.70;99.60
2260;DHT22;333;48.800;9.530;2023-06-14T03:15:49;10.70;99.60
2260;DHT22;333;48.800;9.530;2023-06-14T03:18:16;10.70;99.60
2260;DHT22;333;48.800;9.530;2023-06-14T03:20:43;10.70;99.60
2260;DHT22;333;48.800;9.530;2023-06-14T03:23:11;10.70;99.60
2260;DHT22;333;48.800;9.530;2023-06-14T03:25:40;10.70;99.60
2260;DHT22;333;48.800;9.530;2023-06-14T03:28:07;10.60;99.60
2260;DHT22;333;48.800;9.530;2023-06-14T03:30:34;10.70;99.60
2260;DHT22;333;48.800;9.530;2023-06-14T03:33:01;10.60;99.60
2260;DHT22;333;48.800;9.530;2023-06-14T03:35:28;10.60;99.60
2260;DHT22;333;48.800;9.530;2023-06-14T03:37:55;10.70;99.60
2260;DHT22;333;48.800;9.530;2023-06-14T03:40:22;10.60;99.60
2260;DHT22;333;48.800;9.530;2023-06-14T03:42:53;10.80;99.60
2260;DHT22;333;48.800;9.530;2023-06-14T03:45:20;10.80;99.60
2260;DHT22;333;48.800;9.530;2023-06-14T03:47:47;10.70;99.60
2260;DHT22;333;48.800;9.530;2023-06-14T03:50:16;10.70;99.60
2260;DHT22;333;48.800;9.530;2023-06-14T03:52:43;10.80;99.60
2260;DHT22;333;48.800;9.530;2023-06-14T03:55:10;10.80;99.60
2260;DHT22;333;48.800;9.530;2023-06-14T03:57:38;10.90;99.60
2260;DHT22;333;48.800;9.530;2023-06-14T04:00:08;11.00;99.60
2260;DHT22;333;48.800;9.530;2023-06-14T04:02:36;11.10;99.60
2260;DHT22;333;48.800;9.530;2023-06-14T04:05:03;11.30;99.60
2260;DHT22;333;48.800;9.530;2023-06-14T04:07:34;11.40;99.60
2260;DHT22;333;48.800;9.530;2023-06-14T04:10:07;11.50;99.60
2260;DHT22;333;48.800;9.530;2023-06-14T04:12:34;11.50;99.60
2260;DHT22;333;48.800;9.530;2023-06-14T04:15:01;11.50;99.60
2260;DHT22;333;48.800;9.530;2023-06-14T04:17:29;11.50;99.60
2260;DHT22;333;48.800;9.530;2023-06-14T04:19:58;11.50;99.60
2260;DHT22;333;48.800;9.530;2023-06-14T04:22:25;11.50;99.60
2260;DHT22;333;48.800;9.530;2023-06-14T04:24:54;11.60;99.60
2260;DHT22;333;48.800;9.530;2023-06-14T04:27:22;11.80;99.60
2260;DHT22;333;48.800;9.530;2023-06-14T04:29:51;11.70;99.60
2260;DHT22;333;48.800;9.530;2023-06-14T04:32:23;11.70;99.60
2260;DHT22;333;48.800;9.530;2023-06-14T04:34:53;11.80;99.60
2260;DHT22;333;48.800;9.530;2023-06-14T04:37:20;11.90;99.60
2260;DHT22;333;48.800;9.530;2023-06-14T04:39:47;12.00;99.60
2260;DHT22;333;48.800;9.530;2023-06-14T04:42:15;12.10;99.60
2260;DHT22;333;48.800;9.530;2023-06-14T04:44:42;12.00;99.60
2260;DHT22;333;48.800;9.530;2023-06-14T04:47:10;12.10;99.60
2260;DHT22;333;48.800;9.530;2023-06-14T04:49:38;12.10;99.60
2260;DHT22;333;48.800;9.530;2023-06-14T04:52:07;12.20;99.60
2260;DHT22;333;48.800;9.530;2023-06-14T04:54:35;12.50;99.60
2260;DHT22;333;48.800;9.530;2023-06-14T04:57:03;12.60;99.60
2260;DHT22;333;48.800;9.530;2023-06-14T04:59:31;12.70;99.60
2260;DHT22;333;48.800;9.530;2023-06-14T05:01:59;12.80;99.60
2260;DHT22;333;48.800;9.530;2023-06-14T05:04:26;13.00;99.60
2260;DHT22;333;48.800;9.530;2023-06-14T05:06:53;13.00;99.60
2260;DHT22;333;48.800;9.530;2023-06-14T05:09:22;13.10;99.60
2260;DHT22;333;48.800;9.530;2023-06-14T05:11:49;13.20;99.60
2260;DHT22;333;48.800;9.530;2023-06-14T05:14:16;13.30;99.60
2260;DHT22;333;48.800;9.530;2023-06-14T05:16:43;13.40;99.60
2260;DHT22;333;48.800;9.530;2023-06-14T05:19:10;13.50;99.60
2260;DHT22;333;48.800;9.530;2023-06-14T05:21:37;13.50;99.60
2260;DHT22;333;48.800;9.530;2023-06-14T05:24:04;13.50;99.60
2260;DHT22;333;48.800;9.530;2023-06-14T05:26:33;13.70;99.60
2260;DHT22;333;48.800;9.530;2023-06-14T05:29:01;13.70;99.60
2260;DHT22;333;48.800;9.530;2023-06-14T05:31:28;13.80;99.60
2260;DHT22;333;48.800;9.530;2023-06-14T05:33:55;13.80;99.60
2260;DHT22;333;48.800;9.530;2023-06-14T05:36:22;13.90;99.60
2260;DHT22;333;48.800;9.530;2023-06-14T05:38:49;14.00;99.60
2260;DHT22;333;48.800;9.530;2023-06-14T05:41:23;14.20;99.60
2260;DHT22;333;48.800;9.530;2023-06-14T05:43:51;14.40;99.60
2260;DHT22;333;48.800;9.530;2023-06-14T05:46:18;14.60;99.60
2260;DHT22;333;48.800;9.530;2023-06-14T05:48:47;14.70;98.00
2260;DHT22;333;48.800;9.530;2023-06-14T05:51:14;14.70;97.20
2260;DHT22;333;48.800;9.530;2023-06-14T05:53:44;14.90;98.30
2260;DHT22;333;48.800;9.530;2023-06-14T05:56:11;15.00;98.50
2260;DHT22;333;48.800;9.530;2023-06-14T05:58:38;15.20;96.70
2260;DHT22;333;48.800;9.530;2023-06-14T06:01:06;15.20;96.00
2260;DHT22;333;48.800;9.530;2023-06-14T06:03:33;15.40;95.70
2260;DHT22;333;48.800;9.530;2023-06-14T06:06:00;15.50;95.30
2260;DHT22;333;48.800;9.530;2023-06-14T06:08:28;15.70;95.00
2260;DHT22;333;48.800;9.530;2023-06-14T06:10:55;15.70;94.60
2260;DHT22;333;48.800;9.530;2023-06-14T06:13:22;15.80;94.90
2260;DHT22;333;48.800;9.530;2023-06-14T06:15:49;16.10;95.20
2260;DHT22;333;48.800;9.530;2023-06-14T06:18:17;16.30;94.40
2260;DHT22;333;48.800;9.530;2023-06-14T06:20:44;16.60;93.40
2260;DHT22;333;48.800;9.530;2023-06-14T06:23:12;16.80;92.60
2260;DHT22;333;48.800;9.530;2023-06-14T06:25:39;16.90;92.60
2260;DHT22;333;48.800;9.530;2023-06-14T06:28:06;16.90;92.70
2260;DHT22;333;48.800;9.530;2023-06-14T06:30:33;17.10;92.00
2260;DHT22;333;48.800;9.530;2023-06-14T06:33:01;17.30;92.40
2260;DHT22;333;48.800;9.530;2023-06-14T06:35:30;17.40;91.10
2260;DHT22;333;48.800;9.530;2023-06-14T06:37:59;17.60;91.20
2260;DHT22;333;48.800;9.530;2023-06-14T06:40:26;17.80;90.30
2260;DHT22;333;48.800;9.530;2023-06-14T06:42:53;17.80;89.70
2260;DHT22;333;48.800;9.530;2023-06-14T06:45:20;17.90;90.50
2260;DHT22;333;48.800;9.530;2023-06-14T06:47:48;18.10;88.80
2260;DHT22;333;48.800;9.530;2023-06-14T06:50:15;17.90;89.00
2260;DHT22;333;48.800;9.530;2023-06-14T06:52:44;17.90;89.40
2260;DHT22;333;48.800;9.530;2023-06-14T06:55:11;18.10;89.80
2260;DHT22;333;48.800;9.530;2023-06-14T06:57:38;18.20;90.00
2260;DHT22;333;48.800;9.530;2023-06-14T07:00:06;18.50;90.20
2260;DHT22;333;48.800;9.530;2023-06-14T07:02:35;18.60;87.90
2260;DHT22;333;48.800;9.530;2023-06-14T07:05:02;18.40;89.60
2260;DHT22;333;48.800;9.530;2023-06-14T07:07:29;18.50;88.70
2260;DHT22;333;48.800;9.530;2023-06-14T07:09:58;18.70;90.20
2260;DHT22;333;48.800;9.530;2023-06-14T07:12:26;18.90;88.80
2260;DHT22;333;48.800;9.530;2023-06-14T07:14:52;19.20;88.20
2260;DHT22;333;48.800;9.530;2023-06-14T07:17:19;19.30;86.20
2260;DHT22;333;48.800;9.530;2023-06-14T07:19:46;19.40;86.70
2260;DHT22;333;48.800;9.530;2023-06-14T07:22:13;19.60;86.30
2260;DHT22;333;48.800;9.530;2023-06-14T07:24:40;19.60;86.30
2260;DHT22;333;48.800;9.530;2023-06-14T07:27:09;19.70;86.10
2260;DHT22;333;48.800;9.530;2023-06-14T07:29:36;19.80;86.30
2260;DHT22;333;48.800;9.530;2023-06-14T07:32:03;19.80;84.90
2260;DHT22;333;48.800;9.530;2023-06-14T07:34:30;19.90;84.10
2260;DHT22;333;48.800;9.530;2023-06-14T07:36:57;19.80;85.10
2260;DHT22;333;48.800;9.530;2023-06-14T07:39:24;20.00;85.50
2260;DHT22;333;48.800;9.530;2023-06-14T07:41:51;19.90;84.30
2260;DHT22;333;48.800;9.530;2023-06-14T07:44:19;19.90;84.70
2260;DHT22;333;48.800;9.530;2023-06-14T07:46:46;20.20;83.50
2260;DHT22;333;48.800;9.530;2023-06-14T07:49:14;20.30;84.80
2260;DHT22;333;48.800;9.530;2023-06-14T07:51:41;20.50;82.20
2260;DHT22;333;48.800;9.530;2023-06-14T07:54:09;20.50;83.00
2260;DHT22;333;48.800;9.530;2023-06-14T07:56:36;20.50;82.90
2260;DHT22;333;48.800;9.530;2023-06-14T07:59:03;20.70;82.70
2260;DHT22;333;48.800;9.530;2023-06-14T08:01:32;20.90;82.10
2260;DHT22;333;48.800;9.530;2023-06-14T08:03:59;21.10;80.40
2260;DHT22;333;48.800;9.530;2023-06-14T08:06:26;21.10;80.90
2260;DHT22;333;48.800;9.530;2023-06-14T08:08:53;21.30;81.00
2260;DHT22;333;48.800;9.530;2023-06-14T08:11:20;21.40;80.30
2260;DHT22;333;48.800;9.530;2023-06-14T08:13:49;21.40;80.20
2260;DHT22;333;48.800;9.530;2023-06-14T08:16:16;21.60;80.60
2260;DHT22;333;48.800;9.530;2023-06-14T08:18:44;21.50;79.10
2260;DHT22;333;48.800;9.530;2023-06-14T08:21:11;21.40;81.20
2260;DHT22;333;48.800;9.530;2023-06-14T08:23:39;21.50;80.10
2260;DHT22;333;48.800;9.530;2023-06-14T08:26:06;21.40;79.40
2260;DHT22;333;48.800;9.530;2023-06-14T08:28:33;21.40;81.50
2260;DHT22;333;48.800;9.530;2023-06-14T08:31:00;21.80;78.60
2260;DHT22;333;48.800;9.530;2023-06-14T08:33:27;22.10;79.30
2260;DHT22;333;48.800;9.530;2023-06-14T08:35:55;22.40;77.90
2260;DHT22;333;48.800;9.530;2023-06-14T08:38:22;22.30;76.60
2260;DHT22;333;48.800;9.530;2023-06-14T08:40:50;22.00;77.90
2260;DHT22;333;48.800;9.530;2023-06-14T08:43:19;22.20;77.00
2260;DHT22;333;48.800;9.530;2023-06-14T08:45:46;22.20;77.20
2260;DHT22;333;48.800;9.530;2023-06-14T08:48:16;22.30;77.90
2260;DHT22;333;48.800;9.530;2023-06-14T08:50:47;22.40;76.10
2260;DHT22;333;48.800;9.530;2023-06-14T08:53:16;22.60;76.40
2260;DHT22;333;48.800;9.530;2023-06-14T08:55:45;22.90;75.70
2260;DHT22;333;48.800;9.530;2023-06-14T08:58:13;23.10;75.90
2260;DHT22;333;48.800;9.530;2023-06-14T09:00:40;23.30;73.70
2260;DHT22;333;48.800;9.530;2023-06-14T09:03:08;23.30;74.20
2260;DHT22;333;48.800;9.530;2023-06-14T09:05:39;23.20;72.90
2260;DHT22;333;48.800;9.530;2023-06-14T09:08:06;22.90;72.30
2260;DHT22;333;48.800;9.530;2023-06-14T09:10:35;22.80;72.70
2260;DHT22;333;48.800;9.530;2023-06-14T09:13:02;22.90;72.60
2260;DHT22;333;48.800;9.530;2023-06-14T09:15:30;23.30;73.40
2260;DHT22;333;48.800;9.530;2023-06-14T09:17:57;24.10;71.60
2260;DHT22;333;48.800;9.530;2023-06-14T09:20:24;24.30;70.80
2260;DHT22;333;48.800;9.530;2023-06-14T09:22:51;23.30;71.00
2260;DHT22;333;48.800;9.530;2023-06-14T09:25:18;22.60;71.50
2260;DHT22;333;48.800;9.530;2023-06-14T09:27:47;22.80;71.70
2260;DHT22;333;48.800;9.530;2023-06-14T09:30:14;22.60;73.00
2260;DHT22;333;48.800;9.530;2023-06-14T09:32:41;22.30;72.80
2260;DHT22;333;48.800;9.530;2023-06-14T09:35:08;22.40;73.00
2260;DHT22;333;48.800;9.530;2023-06-14T09:37:36;22.70;72.20
2260;DHT22;333;48.800;9.530;2023-06-14T09:40:05;22.90;71.40
2260;DHT22;333;48.800;9.530;2023-06-14T09:42:33;23.70;70.00
2260;DHT22;333;48.800;9.530;2023-06-14T09:45:03;24.00;66.40
2260;DHT22;333;48.800;9.530;2023-06-14T09:47:31;23.40;69.20
2260;DHT22;333;48.800;9.530;2023-06-14T09:49:58;23.20;69.80
2260;DHT22;333;48.800;9.530;2023-06-14T09:52:26;23.10;70.00
2260;DHT22;333;48.800;9.530;2023-06-14T09:54:55;23.20;70.80
2260;DHT22;333;48.800;9.530;2023-06-14T09:57:23;23.50;69.70
2260;DHT22;333;48.800;9.530;2023-06-14T09:59:53;23.70;68.90
2260;DHT22;333;48.800;9.530;2023-06-14T10:02:28;24.40;67.60
2260;DHT22;333;48.800;9.530;2023-06-14T10:05:02;25.30;66.40
2260;DHT22;333;48.800;9.530;2023-06-14T10:07:35;25.90;64.90
2260;DHT22;333;48.800;9.530;2023-06-14T10:10:06;25.80;64.00
2260;DHT22;333;48.800;9.530;2023-06-14T10:12:33;25.40;66.90
2260;DHT22;333;48.800;9.530;2023-06-14T10:15:00;25.10;65.60
2260;DHT22;333;48.800;9.530;2023-06-14T10:17:35;25.00;66.70
2260;DHT22;333;48.800;9.530;2023-06-14T10:20:14;25.70;65.10
2260;DHT22;333;48.800;9.530;2023-06-14T10:22:48;25.90;64.70
2260;DHT22;333;48.800;9.530;2023-06-14T10:25:26;26.50;63.80
2260;DHT22;333;48.800;9.530;2023-06-14T10:28:02;27.10;63.40
2260;DHT22;333;48.800;9.530;2023-06-14T10:30:29;26.80;62.20
2260;DHT22;333;48.800;9.530;2023-06-14T10:33:07;27.00;61.90
2260;DHT22;333;48.800;9.530;2023-06-14T10:35:35;26.70;62.80
2260;DHT22;333;48.800;9.530;2023-06-14T10:38:09;26.60;64.40
2260;DHT22;333;48.800;9.530;2023-06-14T10:40:36;26.90;63.50
2260;DHT22;333;48.800;9.530;2023-06-14T10:43:21;26.90;62.50
2260;DHT22;333;48.800;9.530;2023-06-14T10:46:14;26.50;62.60
2260;DHT22;333;48.800;9.530;2023-06-14T10:48:43;25.50;64.80
2260;DHT22;333;48.800;9.530;2023-06-14T10:51:18;25.10;64.50
2260;DHT22;333;48.800;9.530;2023-06-14T10:53:48;24.40;65.60
2260;DHT22;333;48.800;9.530;2023-06-14T10:56:27;24.20;67.50
2260;DHT22;333;48.800;9.530;2023-06-14T10:58:54;24.00;66.60
2260;DHT22;333;48.800;9.530;2023-06-14T11:01:32;23.60;66.90
2260;DHT22;333;48.800;9.530;2023-06-14T11:04:09;23.70;67.60
2260;DHT22;333;48.800;9.530;2023-06-14T11:06:47;24.00;67.60
2260;DHT22;333;48.800;9.530;2023-06-14T11:09:38;24.90;65.80
2260;DHT22;333;48.800;9.530;2023-06-14T11:12:10;25.20;65.10
2260;DHT22;333;48.800;9.530;2023-06-14T11:14:38;25.80;63.80
2260;DHT22;333;48.800;9.530;2023-06-14T11:17:05;25.80;64.10
2260;DHT22;333;48.800;9.530;2023-06-14T11:19:33;25.70;63.40
2260;DHT22;333;48.800;9.530;2023-06-14T11:22:00;25.30;64.40
2260;DHT22;333;48.800;9.530;2023-06-14T11:24:27;25.10;65.70
2260;DHT22;333;48.800;9.530;2023-06-14T11:26:55;25.70;64.60
2260;DHT22;333;48.800;9.530;2023-06-14T11:29:23;25.90;65.30
2260;DHT22;333;48.800;9.530;2023-06-14T11:31:50;25.60;63.90
2260;DHT22;333;48.800;9.530;2023-06-14T11:34:17;25.00;65.20
2260;DHT22;333;48.800;9.530;2023-06-14T11:36:46;24.70;65.40
2260;DHT22;333;48.800;9.530;2023-06-14T11:39:13;25.00;64.90
2260;DHT22;333;48.800;9.530;2023-06-14T11:41:42;25.40;64.60
2260;DHT22;333;48.800;9.530;2023-06-14T11:44:09;26.00;63.60
2260;DHT22;333;48.800;9.530;2023-06-14T11:46:37;26.10;64.00
2260;DHT22;333;48.800;9.530;2023-06-14T11:49:04;26.50;61.80
2260;DHT22;333;48.800;9.530;2023-06-14T11:51:35;26.70;62.40
2260;DHT22;333;48.800;9.530;2023-06-14T11:54:04;25.60;63.00
2260;DHT22;333;48.800;9.530;2023-06-14T11:56:31;25.50;64.40
2260;DHT22;333;48.800;9.530;2023-06-14T11:58:59;25.20;63.50
2260;DHT22;333;48.800;9.530;2023-06-14T12:01:26;25.10;64.30
2260;DHT22;333;48.800;9.530;2023-06-14T12:03:54;24.80;64.70
2260;DHT22;333;48.800;9.530;2023-06-14T12:06:26;25.30;66.20
2260;DHT22;333;48.800;9.530;2023-06-14T12:08:58;25.60;65.50
2260;DHT22;333;48.800;9.530;2023-06-14T12:11:33;25.30;64.70
2260;DHT22;333;48.800;9.530;2023-06-14T12:14:00;25.10;64.60
2260;DHT22;333;48.800;9.530;2023-06-14T12:16:34;25.30;64.50
2260;DHT22;333;48.800;9.530;2023-06-14T12:19:08;25.30;65.00
2260;DHT22;333;48.800;9.530;2023-06-14T12:21:37;25.40;65.20
2260;DHT22;333;48.800;9.530;2023-06-14T12:24:06;24.80;65.80
2260;DHT22;333;48.800;9.530;2023-06-14T12:26:37;24.80;65.70
2260;DHT22;333;48.800;9.530;2023-06-14T12:29:05;24.80;67.30
2260;DHT22;333;48.800;9.530;2023-06-14T12:31:32;24.90;66.10
2260;DHT22;333;48.800;9.530;2023-06-14T12:33:59;25.10;65.20
2260;DHT22;333;48.800;9.530;2023-06-14T12:36:26;25.20;66.20
2260;DHT22;333;48.800;9.530;2023-06-14T12:38:53;25.80;64.00
2260;DHT22;333;48.800;9.530;2023-06-14T12:41:20;26.20;63.80
2260;DHT22;333;48.800;9.530;2023-06-14T12:43:49;26.30;63.10
2260;DHT22;333;48.800;9.530;2023-06-14T12:46:16;26.70;65.10
2260;DHT22;333;48.800;9.530;2023-06-14T12:48:43;27.70;62.80
2260;DHT22;333;48.800;9.530;2023-06-14T12:51:10;28.10;63.40
2260;DHT22;333;48.800;9.530;2023-06-14T12:53:37;27.30;60.20
2260;DHT22;333;48.800;9.530;2023-06-14T12:56:04;27.20;61.10
2260;DHT22;333;48.800;9.530;2023-06-14T12:58:31;27.50;61.50
2260;DHT22;333;48.800;9.530;2023-06-14T13:00:59;27.00;60.50
2260;DHT22;333;48.800;9.530;2023-06-14T13:03:26;27.00;60.20
2260;DHT22;333;48.800;9.530;2023-06-14T13:05:52;27.80;59.20
2260;DHT22;333;48.800;9.530;2023-06-14T13:08:19;28.60;59.00
2260;DHT22;333;48.800;9.530;2023-06-14T13:10:46;28.80;57.10
2260;DHT22;333;48.800;9.530;2023-06-14T13:13:13;28.70;58.30
2260;DHT22;333;48.800;9.530;2023-06-14T13:15:40;27.80;58.90
2260;DHT22;333;48.800;9.530;2023-06-14T13:18:08;27.50;60.20
2260;DHT22;333;48.800;9.530;2023-06-14T13:20:37;28.00;60.00
2260;DHT22;333;48.800;9.530;2023-06-14T13:23:04;27.20;60.80
2260;DHT22;333;48.800;9.530;2023-06-14T13:25:32;26.70;61.70
2260;DHT22;333;48.800;9.530;2023-06-14T13:27:59;27.10;62.10
2260;DHT22;333;48.800;9.530;2023-06-14T13:30:26;27.00;61.30
2260;DHT22;333;48.800;9.530;2023-06-14T13:32:53;26.90;61.40
2260;DHT22;333;48.800;9.530;2023-06-14T13:35:23;28.00;62.40
2260;DHT22;333;48.800;9.530;2023-06-14T13:37:50;29.40;58.00
2260;DHT22;333;48.800;9.530;2023-06-14T13:40:17;28.10;58.40
2260;DHT22;333;48.800;9.530;2023-06-14T13:42:44;27.40;59.50
2260;DHT22;333;48.800;9.530;2023-06-14T13:45:11;27.00;60.50
2260;DHT22;333;48.800;9.530;2023-06-14T13:47:38;26.90;61.30
2260;DHT22;333;48.800;9.530;2023-06-14T13:50:06;27.00;60.80
2260;DHT22;333;48.800;9.530;2023-06-14T13:52:34;27.10;61.00
2260;DHT22;333;48.800;9.530;2023-06-14T13:55:01;27.00;60.80
2260;DHT22;333;48.800;9.530;2023-06-14T13:57:28;26.60;61.20
2260;DHT22;333;48.800;9.530;2023-06-14T13:59:55;26.40;61.40
2260;DHT22;333;48.800;9.530;2023-06-14T14:02:26;26.70;62.50
2260;DHT22;333;48.800;9.530;2023-06-14T14:04:53;27.30;61.20
2260;DHT22;333;48.800;9.530;2023-06-14T14:07:21;26.50;61.50
2260;DHT22;333;48.800;9.530;2023-06-14T14:09:49;25.90;62.40
2260;DHT22;333;48.800;9.530;2023-06-14T14:12:16;25.90;63.00
2260;DHT22;333;48.800;9.530;2023-06-14T14:14:43;25.80;62.80
2260;DHT22;333;48.800;9.530;2023-06-14T14:17:11;25.80;61.90
2260;DHT22;333;48.800;9.530;2023-06-14T14:19:38;26.00;62.50
2260;DHT22;333;48.800;9.530;2023-06-14T14:22:05;26.40;62.50
2260;DHT22;333;48.800;9.530;2023-06-14T14:24:32;26.30;62.20
2260;DHT22;333;48.800;9.530;2023-06-14T14:27:01;26.30;62.70
2260;DHT22;333;48.800;9.530;2023-06-14T14:29:28;26.20;62.60
2260;DHT22;333;48.800;9.530;2023-06-14T14:31:55;25.50;63.00
2260;DHT22;333;48.800;9.530;2023-06-14T14:34:23;24.90;64.10
2260;DHT22;333;48.800;9.530;2023-06-14T14:36:50;24.90;64.90
2260;DHT22;333;48.800;9.530;2023-06-14T14:39:17;25.20;63.30
2260;DHT22;333;48.800;9.530;2023-06-14T14:41:44;25.50;63.40
2260;DHT22;333;48.800;9.530;2023-06-14T14:44:12;25.80;63.00
2260;DHT22;333;48.800;9.530;2023-06-14T14:46:39;26.60;61.50
2260;DHT22;333;48.800;9.530;2023-06-14T14:49:06;26.70;62.00
2260;DHT22;333;48.800;9.530;2023-06-14T14:51:33;27.50;60.70
2260;DHT22;333;48.800;9.530;2023-06-14T14:54:00;27.80;60.00
2260;DHT22;333;48.800;9.530;2023-06-14T14:56:27;27.60;59.90
2260;DHT22;333;48.800;9.530;2023-06-14T14:58:54;28.10;59.30
2260;DHT22;333;48.800;9.530;2023-06-14T15:01:22;28.10;58.60
2260;DHT22;333;48.800;9.530;2023-06-14T15:03:49;28.60;59.60
2260;DHT22;333;48.800;9.530;2023-06-14T15:06:15;29.10;57.00
2260;DHT22;333;48.800;9.530;2023-06-14T15:08:43;29.40;56.90
2260;DHT22;333;48.800;9.530;2023-06-14T15:11:10;29.50;56.30
2260;DHT22;333;48.800;9.530;2023-06-14T15:13:37;28.60;55.90
2260;DHT22;333;48.800;9.530;2023-06-14T15:16:04;29.00;56.20
2260;DHT22;333;48.800;9.530;2023-06-14T15:18:32;29.60;54.90
2260;DHT22;333;48.800;9.530;2023-06-14T15:20:59;30.20;54.20
2260;DHT22;333;48.800;9.530;2023-06-14T15:23:26;30.90;54.10
2260;DHT22;333;48.800;9.530;2023-06-14T15:25:52;31.30;53.30
2260;DHT22;333;48.800;9.530;2023-06-14T15:28:20;31.60;52.30
2260;DHT22;333;48.800;9.530;2023-06-14T15:30:49;30.80;53.20
2260;DHT22;333;48.800;9.530;2023-06-14T15:33:16;31.00;53.40
2260;DHT22;333;48.800;9.530;2023-06-14T15:35:45;31.70;52.90
2260;DHT22;333;48.800;9.530;2023-06-14T15:38:11;32.20;52.20
2260;DHT22;333;48.800;9.530;2023-06-14T15:40:38;31.30;52.00
2260;DHT22;333;48.800;9.530;2023-06-14T15:43:05;29.80;55.60
2260;DHT22;333;48.800;9.530;2023-06-14T15:45:32;31.00;54.70
2260;DHT22;333;48.800;9.530;2023-06-14T15:47:59;31.40;53.90
2260;DHT22;333;48.800;9.530;2023-06-14T15:50:26;31.00;53.50
2260;DHT22;333;48.800;9.530;2023-06-14T15:52:54;30.50;53.80
2260;DHT22;333;48.800;9.530;2023-06-14T15:55:21;29.60;55.20
2260;DHT22;333;48.800;9.530;2023-06-14T15:57:48;29.30;56.00
2260;DHT22;333;48.800;9.530;2023-06-14T16:00:16;29.00;57.20
2260;DHT22;333;48.800;9.530;2023-06-14T16:02:42;28.80;58.10
2260;DHT22;333;48.800;9.530;2023-06-14T16:05:11;28.20;57.40
2260;DHT22;333;48.800;9.530;2023-06-14T16:07:37;27.80;58.60
2260;DHT22;333;48.800;9.530;2023-06-14T16:10:07;27.50;59.40
2260;DHT22;333;48.800;9.530;2023-06-14T16:12:34;27.40;58.90
2260;DHT22;333;48.800;9.530;2023-06-14T16:15:01;27.20;59.50
2260;DHT22;333;48.800;9.530;2023-06-14T16:17:27;26.70;60.20
2260;DHT22;333;48.800;9.530;2023-06-14T16:19:54;26.60;61.00
2260;DHT22;333;48.800;9.530;2023-06-14T16:22:21;26.40;60.40